createdAt,value
2018-03-24T00:02:16.611Z,1.60
2018-03-24T00:04:43.234Z,1.60
2018-03-24T00:07:09.809Z,1.60
2018-03-24T00:09:36.561Z,1.60
2018-03-24T00:12:03.210Z,1.60
2018-03-24T00:14:29.829Z,1.60
2018-03-24T00:16:56.362Z,1.60
2018-03-24T00:19:22.928Z,1.60
2018-03-24T00:21:49.494Z,1.50
2018-03-24T00:24:16.043Z,1.40
2018-03-24T00:26:42.617Z,1.40
2018-03-24T00:29:09.190Z,1.30
2018-03-24T00:31:36.090Z,1.40
2018-03-24T00:34:02.718Z,1.40
2018-03-24T00:36:29.286Z,1.40
2018-03-24T00:38:55.838Z,1.40
2018-03-24T00:41:22.406Z,1.40
2018-03-24T00:43:49.002Z,1.40
2018-03-24T00:46:15.531Z,1.30
2018-03-24T00:48:42.100Z,1.30
2018-03-24T00:51:08.781Z,1.30
2018-03-24T00:53:35.313Z,1.30
2018-03-24T00:56:01.884Z,1.30
2018-03-24T00:58:28.449Z,1.20
2018-03-24T01:00:55.073Z,1.20
2018-03-24T01:03:21.688Z,1.10
2018-03-24T01:05:48.266Z,1.10
2018-03-24T01:08:14.804Z,1.10
2018-03-24T01:10:41.466Z,1.00
2018-03-24T01:13:08.030Z,1.00
2018-03-24T01:15:34.561Z,1.00
2018-03-24T01:18:01.212Z,0.90
2018-03-24T01:20:27.776Z,0.90
2018-03-24T01:22:54.305Z,0.90
2018-03-24T01:25:20.865Z,0.90
2018-03-24T01:27:47.434Z,0.90
2018-03-24T01:30:14.376Z,0.70
2018-03-24T01:32:40.941Z,0.70
2018-03-24T01:35:07.883Z,0.80
2018-03-24T01:37:34.423Z,0.70
2018-03-24T01:40:01.031Z,0.80
2018-03-24T01:42:27.632Z,0.80
2018-03-24T01:44:54.157Z,0.80
2018-03-24T01:47:20.721Z,0.70
2018-03-24T01:49:47.314Z,0.70
2018-03-24T01:52:13.889Z,0.80
2018-03-24T01:54:40.454Z,0.80
2018-03-24T01:57:07.029Z,0.80
2018-03-24T01:59:33.945Z,0.80
2018-03-24T02:02:00.509Z,0.70
2018-03-24T02:04:27.521Z,0.80
2018-03-24T02:06:54.071Z,0.80
2018-03-24T02:09:20.634Z,0.80
2018-03-24T02:11:47.202Z,0.70
2018-03-24T02:14:13.738Z,0.80
2018-03-24T02:16:40.303Z,0.70
2018-03-24T02:19:06.895Z,0.70
2018-03-24T02:21:35.352Z,0.70
2018-03-24T02:24:02.296Z,0.50
2018-03-24T02:26:28.899Z,0.50
2018-03-24T02:28:55.430Z,0.50
2018-03-24T02:31:22.039Z,0.40
2018-03-24T02:33:48.662Z,0.40
2018-03-24T02:36:15.194Z,0.30
2018-03-24T02:38:41.838Z,0.20
2018-03-24T02:41:08.485Z,0.10
2018-03-24T02:43:35.269Z,0.10
2018-03-24T02:46:01.894Z,0.20
2018-03-24T02:48:28.454Z,0.10
2018-03-24T02:50:55.011Z,0.10
2018-03-24T02:53:21.581Z,0.10
2018-03-24T02:55:48.154Z,0.00
2018-03-24T02:58:15.050Z,0.00
2018-03-24T03:00:41.712Z,0.00
2018-03-24T03:03:08.286Z,0.00
2018-03-24T03:05:34.818Z,0.00
2018-03-24T03:08:01.397Z,0.00
2018-03-24T03:10:28.342Z,0.00
2018-03-24T03:12:55.238Z,0.00
2018-03-24T03:15:21.811Z,0.00
2018-03-24T03:17:48.370Z,0.10
2018-03-24T03:20:14.903Z,0.00
2018-03-24T03:22:41.466Z,0.00
2018-03-24T03:25:08.038Z,0.00
2018-03-24T03:27:35.033Z,0.00
2018-03-24T03:30:01.647Z,0.00
2018-03-24T03:32:28.630Z,-0.10
2018-03-24T03:34:55.169Z,-0.10
2018-03-24T03:37:21.738Z,-0.10
2018-03-24T03:39:48.318Z,-0.10
2018-03-24T03:42:15.062Z,-0.10
2018-03-24T03:44:41.674Z,0.00
2018-03-24T03:47:08.233Z,0.00
2018-03-24T03:49:34.781Z,0.00
2018-03-24T03:52:01.459Z,0.00
2018-03-24T03:54:28.073Z,0.00
2018-03-24T03:56:54.651Z,0.00
2018-03-24T03:59:21.209Z,0.00
2018-03-24T04:01:47.844Z,0.00
2018-03-24T04:04:14.374Z,0.00
2018-03-24T04:06:40.941Z,0.00
2018-03-24T04:09:07.498Z,-0.10
2018-03-24T04:11:34.037Z,-0.10
2018-03-24T04:14:00.609Z,-0.10
2018-03-24T04:16:27.178Z,-0.10
2018-03-24T04:18:53.722Z,-0.10
2018-03-24T04:21:20.690Z,-0.20
2018-03-24T04:23:47.382Z,-0.20
2018-03-24T04:26:14.040Z,-0.20
2018-03-24T04:28:40.653Z,-0.20
2018-03-24T04:31:07.218Z,-0.20
2018-03-24T04:33:33.746Z,-0.30
2018-03-24T04:36:00.399Z,-0.30
2018-03-24T04:38:27.005Z,-0.30
2018-03-24T04:40:53.538Z,-0.30
2018-03-24T04:43:20.369Z,-0.40
2018-03-24T04:45:46.932Z,-0.40
2018-03-24T04:48:13.542Z,-0.40
2018-03-24T04:50:40.102Z,-0.40
2018-03-24T04:53:06.768Z,-0.40
2018-03-24T04:55:33.318Z,-0.50
2018-03-24T04:57:59.887Z,-0.50
2018-03-24T05:00:26.460Z,-0.50
2018-03-24T05:02:53.392Z,-0.60
2018-03-24T05:05:20.325Z,-0.70
2018-03-24T05:07:46.889Z,-0.70
2018-03-24T05:10:13.413Z,-0.70
2018-03-24T05:12:39.977Z,-0.60
2018-03-24T05:15:06.601Z,-0.60
2018-03-24T05:17:33.129Z,-0.60
2018-03-24T05:19:59.694Z,-0.70
2018-03-24T05:22:26.271Z,-0.60
2018-03-24T05:24:52.903Z,-0.60
2018-03-24T05:27:19.549Z,-0.60
2018-03-24T05:29:46.125Z,-0.60
2018-03-24T05:32:12.670Z,-0.60
2018-03-24T05:34:39.622Z,-0.50
2018-03-24T05:37:06.186Z,-0.50
2018-03-24T05:39:33.085Z,-0.20
2018-03-24T05:42:06.652Z,-0.20
2018-03-24T05:44:33.625Z,0.00
2018-03-24T05:47:00.165Z,0.00
2018-03-24T05:49:27.111Z,0.10
2018-03-24T05:51:54.048Z,0.20
2018-03-24T05:54:20.589Z,0.20
2018-03-24T05:56:47.640Z,0.50
2018-03-24T05:59:14.258Z,0.60
2018-03-24T06:01:40.794Z,0.70
2018-03-24T06:04:07.366Z,0.90
2018-03-24T06:06:34.033Z,1.10
2018-03-24T06:09:00.683Z,1.20
2018-03-24T06:11:27.331Z,1.50
2018-03-24T06:13:53.899Z,1.60
2018-03-24T06:16:20.435Z,1.80
2018-03-24T06:18:47.007Z,2.00
2018-03-24T06:21:13.947Z,2.00
2018-03-24T06:23:40.578Z,2.00
2018-03-24T06:26:07.141Z,2.10
2018-03-24T06:28:33.739Z,2.20
2018-03-24T06:34:00.636Z,2.60
2018-03-24T06:36:30.258Z,2.80
2018-03-24T06:38:56.831Z,2.90
2018-03-24T06:41:23.412Z,3.20
2018-03-24T06:43:50.405Z,3.60
2018-03-24T06:46:16.978Z,3.60
2018-03-24T06:48:43.523Z,3.70
2018-03-24T06:51:10.093Z,3.90
2018-03-24T06:53:36.683Z,4.10
2018-03-24T06:56:03.250Z,4.30
2018-03-24T06:58:29.818Z,4.10
2018-03-24T07:00:56.440Z,4.00
2018-03-24T07:03:23.020Z,4.10
2018-03-24T07:05:49.646Z,4.20
2018-03-24T07:08:16.315Z,4.60
2018-03-24T07:10:42.840Z,4.60
2018-03-24T07:13:09.459Z,4.70
2018-03-24T07:15:36.389Z,4.70
2018-03-24T07:18:02.934Z,4.70
2018-03-24T07:20:29.506Z,4.40
2018-03-24T07:22:56.433Z,4.70
2018-03-24T07:25:22.973Z,4.70
2018-03-24T07:27:49.538Z,4.80
2018-03-24T07:30:16.478Z,4.80
2018-03-24T07:32:43.001Z,4.80
2018-03-24T07:35:09.606Z,4.70
2018-03-24T07:37:36.533Z,4.60
2018-03-24T07:40:03.138Z,4.70
2018-03-24T07:42:29.754Z,4.90
2018-03-24T07:44:56.730Z,5.00
2018-03-24T07:47:23.264Z,5.00
2018-03-24T07:49:49.821Z,5.10
2018-03-24T07:52:16.394Z,5.10
2018-03-24T07:54:42.935Z,5.20
2018-03-24T07:57:09.577Z,5.30
2018-03-24T07:59:36.197Z,5.00
2018-03-24T08:02:03.157Z,5.20
2018-03-24T08:04:30.098Z,5.20
2018-03-24T08:06:56.664Z,5.20
2018-03-24T08:09:23.221Z,5.10
2018-03-24T08:11:49.782Z,5.20
2018-03-24T08:14:16.351Z,5.40
2018-03-24T08:16:42.890Z,5.60
2018-03-24T08:19:09.459Z,5.60
2018-03-24T08:21:36.025Z,5.50
2018-03-24T08:24:02.567Z,5.60
2018-03-24T08:26:29.174Z,5.80
2018-03-24T08:28:55.742Z,5.90
2018-03-24T08:31:22.277Z,5.70
2018-03-24T08:33:48.843Z,5.90
2018-03-24T08:36:15.422Z,6.10
2018-03-24T08:38:42.323Z,5.90
2018-03-24T08:41:08.896Z,5.90
2018-03-24T08:43:35.537Z,6.10
2018-03-24T08:46:02.079Z,5.90
2018-03-24T08:48:28.668Z,5.60
2018-03-24T08:50:55.622Z,5.70
2018-03-24T08:53:22.525Z,5.90
2018-03-24T08:55:49.097Z,6.00
2018-03-24T08:58:15.677Z,5.80
2018-03-24T09:00:42.588Z,6.40
2018-03-24T09:03:09.161Z,6.40
2018-03-24T09:05:35.730Z,6.60
2018-03-24T09:08:02.673Z,6.50
2018-03-24T09:10:29.255Z,6.50
2018-03-24T09:12:55.877Z,6.70
2018-03-24T09:15:22.450Z,6.90
2018-03-24T09:17:49.035Z,6.80
2018-03-24T09:20:15.602Z,6.80
2018-03-24T09:22:42.142Z,6.90
2018-03-24T09:25:08.705Z,6.80
2018-03-24T09:27:35.291Z,6.80
2018-03-24T09:30:01.824Z,7.00
2018-03-24T09:32:28.418Z,7.00
2018-03-24T09:34:55.025Z,7.00
2018-03-24T09:37:21.923Z,7.10
2018-03-24T09:39:48.498Z,7.10
2018-03-24T09:42:15.442Z,7.00
2018-03-24T09:44:42.039Z,7.00
2018-03-24T09:47:08.596Z,6.90
2018-03-24T09:49:42.146Z,7.00
2018-03-24T09:52:08.726Z,7.20
2018-03-24T09:54:35.669Z,7.50
2018-03-24T09:57:02.223Z,7.50
2018-03-24T09:59:29.187Z,7.30
2018-03-24T10:01:56.125Z,7.30
2018-03-24T10:04:22.694Z,7.30
2018-03-24T10:06:49.263Z,7.40
2018-03-24T10:09:15.843Z,7.40
2018-03-24T10:11:42.440Z,7.40
2018-03-24T10:14:09.022Z,7.40
2018-03-24T10:16:35.590Z,7.30
2018-03-24T10:19:02.122Z,7.40
2018-03-24T10:21:37.461Z,7.40
2018-03-24T10:27:05.047Z,7.70
2018-03-24T10:29:31.730Z,7.70
2018-03-24T10:31:58.266Z,7.80
2018-03-24T10:34:24.837Z,7.80
2018-03-24T10:36:51.411Z,7.70
2018-03-24T10:39:18.325Z,6.90
2018-03-24T10:41:44.957Z,6.90
2018-03-24T10:44:11.624Z,6.80
2018-03-24T10:46:38.257Z,6.90
2018-03-24T10:49:04.858Z,7.10
2018-03-24T10:51:31.430Z,7.20
2018-03-24T10:53:57.982Z,7.30
2018-03-24T10:56:24.570Z,7.50
2018-03-24T10:58:51.186Z,7.70
2018-03-24T11:01:24.732Z,7.70
2018-03-24T11:03:51.337Z,7.60
2018-03-24T11:06:17.913Z,7.60
2018-03-24T11:08:44.513Z,7.70
2018-03-24T11:11:11.446Z,8.00
2018-03-24T11:13:38.029Z,8.00
2018-03-24T11:16:05.009Z,8.00
2018-03-24T11:18:31.591Z,8.00
2018-03-24T11:20:58.214Z,8.00
2018-03-24T11:23:24.802Z,8.20
2018-03-24T11:25:51.400Z,8.10
2018-03-24T11:28:17.942Z,8.00
2018-03-24T11:30:44.538Z,8.20
2018-03-24T11:33:11.138Z,8.10
2018-03-24T11:35:37.692Z,8.40
2018-03-24T11:38:04.289Z,8.50
2018-03-24T11:40:30.862Z,8.50
2018-03-24T11:42:57.775Z,8.20
2018-03-24T11:45:24.383Z,8.20
2018-03-24T11:47:50.958Z,8.30
2018-03-24T11:50:17.528Z,8.50
2018-03-24T11:52:44.108Z,8.60
2018-03-24T11:55:10.705Z,8.50
2018-03-24T11:57:37.274Z,8.60
2018-03-24T12:00:15.018Z,8.80
2018-03-24T12:02:41.616Z,9.00
2018-03-24T12:05:08.214Z,8.80
2018-03-24T12:07:34.808Z,8.70
2018-03-24T12:10:01.450Z,8.70
2018-03-24T12:12:27.993Z,8.80
2018-03-24T12:14:54.590Z,8.90
2018-03-24T12:17:21.549Z,9.00
2018-03-24T12:19:48.473Z,9.00
2018-03-24T12:22:15.057Z,9.00
2018-03-24T12:24:41.661Z,9.00
2018-03-24T12:27:08.213Z,8.70
2018-03-24T12:29:34.801Z,8.60
2018-03-24T12:32:01.414Z,8.50
2018-03-24T12:34:27.966Z,8.70
2018-03-24T12:36:54.546Z,8.90
2018-03-24T12:39:21.490Z,9.60
2018-03-24T12:41:48.417Z,9.60
2018-03-24T12:44:15.009Z,9.60
2018-03-24T12:46:41.633Z,9.90
2018-03-24T12:49:08.176Z,10.10
2018-03-24T12:51:34.740Z,9.90
2018-03-24T12:54:01.689Z,9.80
2018-03-24T12:56:28.610Z,9.90
2018-03-24T12:58:55.189Z,9.90
2018-03-24T13:01:21.766Z,10.20
2018-03-24T13:03:48.305Z,10.60
2018-03-24T13:06:14.882Z,10.80
2018-03-24T13:08:41.449Z,10.90
2018-03-24T13:11:08.003Z,10.60
2018-03-24T13:13:34.616Z,10.30
2018-03-24T13:16:01.226Z,10.10
2018-03-24T13:18:28.157Z,10.30
2018-03-24T13:20:54.742Z,10.30
2018-03-24T13:23:21.683Z,10.40
2018-03-24T13:25:48.242Z,10.40
2018-03-24T13:28:15.194Z,10.50
2018-03-24T13:30:42.142Z,10.30
2018-03-24T13:33:09.059Z,10.30
2018-03-24T13:35:35.630Z,10.30
2018-03-24T13:38:02.226Z,10.40
2018-03-24T13:40:28.757Z,10.60
2018-03-24T13:42:55.689Z,10.80
2018-03-24T13:45:22.346Z,10.80
2018-03-24T13:47:48.901Z,10.90
2018-03-24T13:50:15.470Z,10.70
2018-03-24T13:52:42.415Z,10.90
2018-03-24T13:55:09.333Z,10.90
2018-03-24T13:57:35.913Z,10.90
2018-03-24T14:00:02.942Z,10.90
2018-03-24T14:02:29.489Z,10.90
2018-03-24T14:04:56.076Z,11.00
2018-03-24T14:07:23.029Z,11.50
2018-03-24T14:09:49.946Z,11.20
2018-03-24T14:12:16.535Z,11.20
2018-03-24T14:14:43.497Z,11.10
2018-03-24T14:17:10.100Z,11.00
2018-03-24T14:19:36.676Z,11.10
2018-03-24T14:22:03.642Z,11.00
2018-03-24T14:24:30.560Z,11.00
2018-03-24T14:26:57.142Z,11.00
2018-03-24T14:29:24.102Z,10.90
2018-03-24T14:31:51.022Z,10.80
2018-03-24T14:34:17.645Z,10.80
2018-03-24T14:36:44.309Z,10.80
2018-03-24T14:39:10.857Z,10.70
2018-03-24T14:41:37.452Z,10.80
2018-03-24T14:44:04.418Z,10.50
2018-03-24T14:46:31.000Z,10.50
2018-03-24T14:48:57.564Z,10.70
2018-03-24T14:51:24.146Z,10.70
2018-03-24T14:53:51.066Z,10.80
2018-03-24T14:56:17.653Z,10.80
2018-03-24T14:58:44.925Z,10.80
2018-03-24T15:01:11.477Z,10.80
2018-03-24T15:03:38.062Z,10.70
2018-03-24T15:06:04.654Z,10.30
2018-03-24T15:08:31.566Z,10.30
2018-03-24T15:10:58.157Z,10.20
2018-03-24T15:13:24.728Z,10.20
2018-03-24T15:15:51.554Z,10.30
2018-03-24T15:18:18.764Z,10.20
2018-03-24T15:20:45.964Z,10.20
2018-03-24T15:23:12.763Z,10.10
2018-03-24T15:25:39.570Z,10.00
2018-03-24T15:28:06.453Z,9.70
2018-03-24T15:30:45.442Z,9.70
2018-03-24T15:33:24.406Z,9.40
2018-03-24T15:36:03.272Z,9.20
2018-03-24T15:38:30.160Z,9.20
2018-03-24T15:40:56.986Z,9.20
2018-03-24T15:43:23.651Z,9.10
2018-03-24T15:45:50.637Z,8.90
2018-03-24T15:48:17.451Z,8.80
2018-03-24T15:50:44.315Z,8.80
2018-03-24T15:53:11.055Z,8.80
2018-03-24T15:55:37.689Z,8.60
2018-03-24T15:58:04.671Z,8.40
2018-03-24T16:00:31.349Z,8.40
2018-03-24T16:02:57.915Z,8.40
2018-03-24T16:05:24.513Z,8.40
2018-03-24T16:07:51.096Z,8.40
2018-03-24T16:10:17.665Z,8.40
2018-03-24T16:12:44.267Z,8.40
2018-03-24T16:15:10.918Z,8.30
2018-03-24T16:17:37.486Z,8.20
2018-03-24T16:20:04.093Z,8.10
2018-03-24T16:22:30.697Z,8.00
2018-03-24T16:24:57.239Z,8.00
2018-03-24T16:27:23.807Z,7.90
2018-03-24T16:29:50.386Z,7.90
2018-03-24T16:32:16.927Z,7.90
2018-03-24T16:34:43.954Z,7.70
2018-03-24T16:37:10.559Z,7.70
2018-03-24T16:39:37.110Z,7.60
2018-03-24T16:42:03.774Z,7.60
2018-03-24T16:44:30.374Z,7.50
2018-03-24T16:46:57.326Z,7.30
2018-03-24T16:49:24.265Z,7.20
2018-03-24T16:51:50.857Z,7.20
2018-03-24T16:54:17.496Z,7.30
2018-03-24T16:56:44.065Z,7.30
2018-03-24T16:59:10.654Z,7.20
2018-03-24T17:01:37.202Z,7.20
2018-03-24T17:04:03.838Z,7.10
2018-03-24T17:06:30.402Z,7.00
2018-03-24T17:08:56.958Z,6.90
2018-03-24T17:11:23.909Z,6.80
2018-03-24T17:13:50.477Z,6.80
2018-03-24T17:16:17.402Z,6.70
2018-03-24T17:18:44.032Z,6.70
2018-03-24T17:21:10.711Z,6.70
2018-03-24T17:23:37.438Z,6.60
2018-03-24T17:26:04.022Z,6.60
2018-03-24T17:28:30.974Z,6.40
2018-03-24T17:30:57.906Z,6.40
2018-03-24T17:33:24.606Z,6.40
2018-03-24T17:35:51.238Z,6.30
2018-03-24T17:38:18.165Z,6.20
2018-03-24T17:40:44.766Z,6.20
2018-03-24T17:43:11.409Z,6.20
2018-03-24T17:45:37.965Z,6.10
2018-03-24T17:48:04.637Z,6.10
2018-03-24T17:50:31.257Z,6.00
2018-03-24T17:52:57.819Z,5.90
2018-03-24T17:55:24.398Z,5.90
2018-03-24T17:57:51.001Z,5.80
2018-03-24T18:00:17.558Z,5.80
2018-03-24T18:02:44.129Z,5.70
2018-03-24T18:05:10.706Z,5.70
2018-03-24T18:07:37.258Z,5.60
2018-03-24T18:10:04.265Z,5.50
2018-03-24T18:12:30.834Z,5.50
2018-03-24T18:14:57.373Z,5.40
2018-03-24T18:17:23.946Z,5.40
2018-03-24T18:19:50.522Z,5.30
2018-03-24T18:22:17.442Z,5.20
2018-03-24T18:24:44.024Z,5.20
2018-03-24T18:27:10.614Z,5.20
2018-03-24T18:29:37.158Z,5.20
2018-03-24T18:32:03.769Z,5.10
2018-03-24T18:34:30.367Z,5.10
2018-03-24T18:36:56.935Z,5.00
2018-03-24T18:39:23.533Z,4.90
2018-03-24T18:41:50.133Z,4.80
2018-03-24T18:44:16.674Z,4.80
2018-03-24T18:46:43.329Z,4.80
2018-03-24T18:49:09.986Z,4.70
2018-03-24T18:51:36.534Z,4.60
2018-03-24T18:54:03.138Z,4.60
2018-03-24T18:56:29.710Z,4.50
2018-03-24T18:58:56.282Z,4.50
2018-03-24T19:01:22.849Z,4.40
2018-03-24T19:03:49.417Z,4.40
2018-03-24T19:06:15.970Z,4.40
2018-03-24T19:08:42.546Z,4.30
2018-03-24T19:11:09.130Z,4.20
2018-03-24T19:13:35.712Z,4.30
2018-03-24T19:16:02.305Z,4.20
2018-03-24T19:18:28.893Z,4.10
2018-03-24T19:20:55.422Z,4.00
2018-03-24T19:23:21.988Z,3.90
2018-03-24T19:25:49.038Z,3.80
2018-03-24T19:28:15.781Z,3.80
2018-03-24T19:30:42.725Z,3.60
2018-03-24T19:33:09.794Z,3.50
2018-03-24T19:35:36.732Z,3.50
2018-03-24T19:38:03.382Z,3.50
2018-03-24T19:40:29.961Z,3.50
2018-03-24T19:42:56.623Z,3.50
2018-03-24T19:45:23.185Z,3.50
2018-03-24T19:47:49.906Z,3.40
2018-03-24T19:50:16.442Z,3.30
2018-03-24T19:52:43.386Z,3.20
2018-03-24T19:55:10.337Z,3.10
2018-03-24T19:57:36.966Z,3.10
2018-03-24T20:00:03.580Z,3.00
2018-03-24T20:02:30.145Z,3.00
2018-03-24T20:04:56.687Z,3.10
2018-03-24T20:07:23.265Z,3.10
2018-03-24T20:09:49.833Z,3.00
2018-03-24T20:12:17.606Z,2.90
2018-03-24T20:14:44.537Z,2.80
2018-03-24T20:17:11.654Z,2.80
2018-03-24T20:19:38.214Z,2.80
2018-03-24T20:22:04.791Z,2.80
2018-03-24T20:24:31.374Z,2.80
2018-03-24T20:26:58.338Z,2.70
2018-03-24T20:29:25.273Z,2.70
2018-03-24T20:31:52.233Z,2.60
2018-03-24T20:34:19.138Z,2.50
2018-03-24T20:36:45.706Z,2.50
2018-03-24T20:39:12.567Z,2.50
2018-03-24T20:41:39.102Z,2.50
2018-03-24T20:44:05.675Z,2.50
2018-03-24T20:46:32.277Z,2.40
2018-03-24T20:48:58.804Z,2.40
2018-03-24T20:51:25.371Z,2.40
2018-03-24T20:53:51.962Z,2.30
2018-03-24T20:56:18.516Z,2.40
2018-03-24T20:58:45.459Z,2.30
2018-03-24T21:01:12.046Z,2.40
2018-03-24T21:03:38.586Z,2.40
2018-03-24T21:06:05.550Z,2.30
2018-03-24T21:08:32.158Z,2.30
2018-03-24T21:10:58.722Z,2.30
2018-03-24T21:13:25.286Z,2.30
2018-03-24T21:15:51.869Z,2.30
2018-03-24T21:18:18.457Z,2.20
2018-03-24T21:20:45.058Z,2.10
2018-03-24T21:23:11.652Z,2.20
2018-03-24T21:25:38.202Z,2.20
2018-03-24T21:28:04.773Z,2.20
2018-03-24T21:30:31.733Z,2.00
2018-03-24T21:32:58.294Z,2.00
2018-03-24T21:35:24.872Z,1.90
2018-03-24T21:37:51.455Z,2.00
2018-03-24T21:40:18.060Z,2.10
2018-03-24T21:42:44.629Z,2.10
2018-03-24T21:45:11.199Z,2.10
2018-03-24T21:47:37.766Z,2.00
2018-03-24T21:50:04.384Z,1.90
2018-03-24T21:52:30.969Z,1.90
2018-03-24T21:54:57.502Z,2.00
2018-03-24T21:57:24.478Z,1.90
2018-03-24T21:59:57.916Z,1.90
2018-03-24T22:02:24.494Z,1.90
2018-03-24T22:04:51.057Z,1.90
2018-03-24T22:07:18.133Z,1.90
2018-03-24T22:09:44.710Z,1.80
2018-03-24T22:12:11.284Z,1.80
2018-03-24T22:14:37.832Z,1.90
2018-03-24T22:17:04.421Z,1.90
2018-03-24T22:19:30.990Z,1.80
2018-03-24T22:21:57.558Z,1.70
2018-03-24T22:24:24.134Z,1.80
2018-03-24T22:26:50.706Z,1.80
2018-03-24T22:29:17.290Z,1.80
2018-03-24T22:31:43.874Z,1.70
2018-03-24T22:34:10.449Z,1.70
2018-03-24T22:36:37.349Z,1.70
2018-03-24T22:39:03.990Z,1.70
2018-03-24T22:41:30.573Z,1.60
2018-03-24T22:43:57.105Z,1.60
2018-03-24T22:46:23.682Z,1.50
2018-03-24T22:48:50.663Z,1.50
2018-03-24T22:51:17.186Z,1.60
2018-03-24T22:53:44.122Z,1.60
2018-03-24T22:56:10.733Z,1.60
2018-03-24T22:58:37.271Z,1.60
2018-03-24T23:01:03.903Z,1.60
2018-03-24T23:03:30.469Z,1.60
2018-03-24T23:05:57.005Z,1.60
2018-03-24T23:08:23.598Z,1.70
2018-03-24T23:10:50.184Z,1.60
2018-03-24T23:13:17.081Z,1.50
2018-03-24T23:15:43.641Z,1.60
2018-03-24T23:18:10.225Z,1.50
2018-03-24T23:20:37.142Z,1.30
2018-03-24T23:23:03.711Z,1.40
2018-03-24T23:25:30.296Z,1.30
2018-03-24T23:27:56.850Z,1.40
2018-03-24T23:30:23.441Z,1.30
2018-03-24T23:32:50.017Z,1.20
2018-03-24T23:35:16.953Z,1.20
2018-03-24T23:37:43.526Z,1.20
2018-03-24T23:40:10.458Z,1.10
2018-03-24T23:42:36.995Z,1.10
2018-03-24T23:45:03.652Z,1.10
2018-03-24T23:47:30.253Z,1.00
2018-03-24T23:49:56.828Z,1.10
2018-03-24T23:52:23.389Z,1.10
2018-03-24T23:54:49.962Z,1.10
2018-03-24T23:57:16.877Z,0.90
2018-03-24T23:59:43.457Z,0.90
